Los Angeles, California
Traffic Map
Current Weather Conditions
Los Angeles, California
Clear
Clear
58°
Feels Like: 58°
Wind Chill: 58° Ceiling: Unl
Heat Index: 58° Visibility: 10mi
Dew Point: 37° Wind: 0mph
Humidity: 46% Direction: ° ()
Pressure: 30.08in Gusts: 0mph
Raw Report DataKCQT 121347Z AUTO 00000KT 10SM CLR 14/03 A3008 RMK AO2 SLP186 T01440028 $
Traffic Incident Summary
Active as of:
Severity:
Category:
InformationThere was an issue retrieving the traffic information for this location. Please try a different location or try again shortly.
Advertisements
Track Severe Weather on mobile